sensor_id;sensor_type;location;lat;lon;timestamp;temperature;humidity
61896;DHT22;47835;52.778;5.956;2022-10-23T00:01:43;18.70;99.90
61896;DHT22;47835;52.778;5.956;2022-10-23T00:04:11;18.70;99.90
61896;DHT22;47835;52.778;5.956;2022-10-23T00:06:36;18.60;99.90
61896;DHT22;47835;52.778;5.956;2022-10-23T00:09:03;18.70;99.90
61896;DHT22;47835;52.778;5.956;2022-10-23T00:11:29;18.60;99.90
61896;DHT22;47835;52.778;5.956;2022-10-23T00:13:55;18.60;99.90
61896;DHT22;47835;52.778;5.956;2022-10-23T00:16:21;18.70;99.90
61896;DHT22;47835;52.778;5.956;2022-10-23T00:18:46;18.70;99.90
61896;DHT22;47835;52.778;5.956;2022-10-23T00:21:13;18.70;99.90
61896;DHT22;47835;52.778;5.956;2022-10-23T00:23:39;18.70;99.90
61896;DHT22;47835;52.778;5.956;2022-10-23T00:26:05;18.60;99.90
61896;DHT22;47835;52.778;5.956;2022-10-23T00:28:32;18.70;99.90
61896;DHT22;47835;52.778;5.956;2022-10-23T00:31:01;18.60;99.90
61896;DHT22;47835;52.778;5.956;2022-10-23T00:33:27;18.60;99.90
61896;DHT22;47835;52.778;5.956;2022-10-23T00:35:53;18.60;99.90
61896;DHT22;47835;52.778;5.956;2022-10-23T00:38:18;18.60;99.90
61896;DHT22;47835;52.778;5.956;2022-10-23T00:40:43;18.60;99.90
61896;DHT22;47835;52.778;5.956;2022-10-23T00:43:18;18.70;99.90
61896;DHT22;47835;52.778;5.956;2022-10-23T00:45:43;18.70;99.90
61896;DHT22;47835;52.778;5.956;2022-10-23T00:48:09;18.60;99.90
61896;DHT22;47835;52.778;5.956;2022-10-23T00:50:35;18.70;99.90
61896;DHT22;47835;52.778;5.956;2022-10-23T00:53:01;18.60;99.90
61896;DHT22;47835;52.778;5.956;2022-10-23T00:55:28;18.60;99.90
61896;DHT22;47835;52.778;5.956;2022-10-23T00:57:54;18.60;99.90
61896;DHT22;47835;52.778;5.956;2022-10-23T01:00:23;18.60;99.90
61896;DHT22;47835;52.778;5.956;2022-10-23T01:02:49;18.60;99.90
61896;DHT22;47835;52.778;5.956;2022-10-23T01:05:15;18.60;99.90
61896;DHT22;47835;52.778;5.956;2022-10-23T01:07:54;18.60;99.90
61896;DHT22;47835;52.778;5.956;2022-10-23T01:12:50;18.60;99.90
61896;DHT22;47835;52.778;5.956;2022-10-23T01:17:54;18.60;99.90
61896;DHT22;47835;52.778;5.956;2022-10-23T01:22:53;18.60;99.90
61896;DHT22;47835;52.778;5.956;2022-10-23T01:28:09;18.60;99.90
61896;DHT22;47835;52.778;5.956;2022-10-23T01:30:36;18.60;99.90
61896;DHT22;47835;52.778;5.956;2022-10-23T01:33:07;18.60;99.90
61896;DHT22;47835;52.778;5.956;2022-10-23T01:35:35;18.60;99.90
61896;DHT22;47835;52.778;5.956;2022-10-23T01:43:10;18.60;99.90
61896;DHT22;47835;52.778;5.956;2022-10-23T01:45:38;18.60;99.90
61896;DHT22;47835;52.778;5.956;2022-10-23T01:48:04;18.60;99.90
61896;DHT22;47835;52.778;5.956;2022-10-23T01:50:30;18.60;99.90
61896;DHT22;47835;52.778;5.956;2022-10-23T01:52:56;18.60;99.90
61896;DHT22;47835;52.778;5.956;2022-10-23T01:55:22;18.60;99.90
61896;DHT22;47835;52.778;5.956;2022-10-23T01:57:49;18.60;99.90
61896;DHT22;47835;52.778;5.956;2022-10-23T02:00:15;18.60;99.90
61896;DHT22;47835;52.778;5.956;2022-10-23T02:02:42;18.60;99.90
61896;DHT22;47835;52.778;5.956;2022-10-23T02:05:09;18.60;99.90
61896;DHT22;47835;52.778;5.956;2022-10-23T02:07:36;18.60;99.90
61896;DHT22;47835;52.778;5.956;2022-10-23T02:10:03;18.60;99.90
61896;DHT22;47835;52.778;5.956;2022-10-23T02:12:32;18.60;99.90
61896;DHT22;47835;52.778;5.956;2022-10-23T02:20:27;18.60;99.90
61896;DHT22;47835;52.778;5.956;2022-10-23T02:22:50;18.60;99.90
61896;DHT22;47835;52.778;5.956;2022-10-23T02:25:17;18.60;99.90
61896;DHT22;47835;52.778;5.956;2022-10-23T02:27:46;18.60;99.90
61896;DHT22;47835;52.778;5.956;2022-10-23T02:30:13;18.60;99.90
61896;DHT22;47835;52.778;5.956;2022-10-23T02:32:41;18.60;99.90
61896;DHT22;47835;52.778;5.956;2022-10-23T02:35:06;18.60;99.90
61896;DHT22;47835;52.778;5.956;2022-10-23T02:37:32;18.60;99.90
61896;DHT22;47835;52.778;5.956;2022-10-23T02:39:58;18.60;99.90
61896;DHT22;47835;52.778;5.956;2022-10-23T02:42:41;18.60;99.90
61896;DHT22;47835;52.778;5.956;2022-10-23T02:45:17;18.60;99.90
61896;DHT22;47835;52.778;5.956;2022-10-23T02:47:58;18.60;99.90
61896;DHT22;47835;52.778;5.956;2022-10-23T02:55:42;18.60;99.90
61896;DHT22;47835;52.778;5.956;2022-10-23T02:58:20;18.60;99.90
61896;DHT22;47835;52.778;5.956;2022-10-23T03:00:49;18.60;99.90
61896;DHT22;47835;52.778;5.956;2022-10-23T03:03:18;18.60;99.90
61896;DHT22;47835;52.778;5.956;2022-10-23T03:05:44;18.60;99.90
61896;DHT22;47835;52.778;5.956;2022-10-23T03:08:11;18.60;99.90
61896;DHT22;47835;52.778;5.956;2022-10-23T03:10:37;18.60;99.90
61896;DHT22;47835;52.778;5.956;2022-10-23T03:13:03;18.60;99.90
61896;DHT22;47835;52.778;5.956;2022-10-23T03:15:28;18.60;99.90
61896;DHT22;47835;52.778;5.956;2022-10-23T03:17:54;18.60;99.90
61896;DHT22;47835;52.778;5.956;2022-10-23T03:20:19;18.60;99.90
61896;DHT22;47835;52.778;5.956;2022-10-23T03:22:45;18.60;99.90
61896;DHT22;47835;52.778;5.956;2022-10-23T03:25:10;18.60;99.90
61896;DHT22;47835;52.778;5.956;2022-10-23T03:27:36;18.60;99.90
61896;DHT22;47835;52.778;5.956;2022-10-23T03:30:02;18.60;99.90
61896;DHT22;47835;52.778;5.956;2022-10-23T03:32:27;18.60;99.90
61896;DHT22;47835;52.778;5.956;2022-10-23T03:34:53;18.60;99.90
61896;DHT22;47835;52.778;5.956;2022-10-23T03:37:18;18.60;99.90
61896;DHT22;47835;52.778;5.956;2022-10-23T03:39:44;18.60;99.90
61896;DHT22;47835;52.778;5.956;2022-10-23T03:42:09;18.60;99.90
61896;DHT22;47835;52.778;5.956;2022-10-23T03:44:35;18.60;99.90
61896;DHT22;47835;52.778;5.956;2022-10-23T03:47:00;18.60;99.90
61896;DHT22;47835;52.778;5.956;2022-10-23T03:49:26;18.60;99.90
61896;DHT22;47835;52.778;5.956;2022-10-23T03:51:51;18.60;99.90
61896;DHT22;47835;52.778;5.956;2022-10-23T03:54:18;18.60;99.90
61896;DHT22;47835;52.778;5.956;2022-10-23T03:56:43;18.60;99.90
61896;DHT22;47835;52.778;5.956;2022-10-23T03:59:09;18.60;99.90
61896;DHT22;47835;52.778;5.956;2022-10-23T04:01:34;18.60;99.90
61896;DHT22;47835;52.778;5.956;2022-10-23T04:04:00;18.60;99.90
61896;DHT22;47835;52.778;5.956;2022-10-23T04:06:25;18.60;99.90
61896;DHT22;47835;52.778;5.956;2022-10-23T04:08:51;18.60;99.90
61896;DHT22;47835;52.778;5.956;2022-10-23T04:11:16;18.60;99.90
61896;DHT22;47835;52.778;5.956;2022-10-23T04:13:42;18.60;99.90
61896;DHT22;47835;52.778;5.956;2022-10-23T04:16:07;18.60;99.90
61896;DHT22;47835;52.778;5.956;2022-10-23T04:18:32;18.60;99.90
61896;DHT22;47835;52.778;5.956;2022-10-23T04:20:58;18.60;99.90
61896;DHT22;47835;52.778;5.956;2022-10-23T04:23:23;18.60;99.90
61896;DHT22;47835;52.778;5.956;2022-10-23T04:25:49;18.60;99.90
61896;DHT22;47835;52.778;5.956;2022-10-23T04:28:14;18.50;99.90
61896;DHT22;47835;52.778;5.956;2022-10-23T04:30:40;18.50;99.90
61896;DHT22;47835;52.778;5.956;2022-10-23T04:33:05;18.60;99.90
61896;DHT22;47835;52.778;5.956;2022-10-23T04:35:31;18.50;99.90
61896;DHT22;47835;52.778;5.956;2022-10-23T04:37:57;18.50;99.90
61896;DHT22;47835;52.778;5.956;2022-10-23T04:40:22;18.60;99.90
61896;DHT22;47835;52.778;5.956;2022-10-23T04:42:48;18.60;99.90
61896;DHT22;47835;52.778;5.956;2022-10-23T04:45:13;18.50;99.90
61896;DHT22;47835;52.778;5.956;2022-10-23T04:47:39;18.60;99.90
61896;DHT22;47835;52.778;5.956;2022-10-23T04:50:04;18.50;99.90
61896;DHT22;47835;52.778;5.956;2022-10-23T04:52:30;18.60;99.90
61896;DHT22;47835;52.778;5.956;2022-10-23T04:54:55;18.50;99.90
61896;DHT22;47835;52.778;5.956;2022-10-23T04:57:21;18.50;99.90
61896;DHT22;47835;52.778;5.956;2022-10-23T04:59:46;18.50;99.90
61896;DHT22;47835;52.778;5.956;2022-10-23T05:02:12;18.50;99.90
61896;DHT22;47835;52.778;5.956;2022-10-23T05:04:37;18.60;99.90
61896;DHT22;47835;52.778;5.956;2022-10-23T05:07:03;18.50;99.90
61896;DHT22;47835;52.778;5.956;2022-10-23T05:09:29;18.50;99.90
61896;DHT22;47835;52.778;5.956;2022-10-23T05:11:54;18.50;99.90
61896;DHT22;47835;52.778;5.956;2022-10-23T05:14:20;18.50;99.90
61896;DHT22;47835;52.778;5.956;2022-10-23T05:16:56;18.50;99.90
61896;DHT22;47835;52.778;5.956;2022-10-23T05:19:25;18.50;99.90
61896;DHT22;47835;52.778;5.956;2022-10-23T05:21:52;18.50;99.90
61896;DHT22;47835;52.778;5.956;2022-10-23T05:24:20;18.50;99.90
61896;DHT22;47835;52.778;5.956;2022-10-23T05:26:46;18.50;99.90
61896;DHT22;47835;52.778;5.956;2022-10-23T05:29:11;18.50;99.90
61896;DHT22;47835;52.778;5.956;2022-10-23T05:31:37;18.50;99.90
61896;DHT22;47835;52.778;5.956;2022-10-23T05:34:02;18.50;99.90
61896;DHT22;47835;52.778;5.956;2022-10-23T05:36:28;18.50;99.90
61896;DHT22;47835;52.778;5.956;2022-10-23T05:38:53;18.50;99.90
61896;DHT22;47835;52.778;5.956;2022-10-23T05:41:19;18.50;99.90
61896;DHT22;47835;52.778;5.956;2022-10-23T05:43:44;18.50;99.90
61896;DHT22;47835;52.778;5.956;2022-10-23T05:46:10;18.50;99.90
61896;DHT22;47835;52.778;5.956;2022-10-23T05:48:36;18.50;99.90
61896;DHT22;47835;52.778;5.956;2022-10-23T05:51:04;18.50;99.90
61896;DHT22;47835;52.778;5.956;2022-10-23T05:53:30;18.50;99.90
61896;DHT22;47835;52.778;5.956;2022-10-23T05:55:56;18.50;99.90
61896;DHT22;47835;52.778;5.956;2022-10-23T05:58:21;18.50;99.90
61896;DHT22;47835;52.778;5.956;2022-10-23T06:00:47;18.50;99.90
61896;DHT22;47835;52.778;5.956;2022-10-23T06:03:13;18.50;99.90
61896;DHT22;47835;52.778;5.956;2022-10-23T06:05:38;18.50;99.90
61896;DHT22;47835;52.778;5.956;2022-10-23T06:08:04;18.50;99.90
61896;DHT22;47835;52.778;5.956;2022-10-23T06:10:29;18.50;99.90
61896;DHT22;47835;52.778;5.956;2022-10-23T06:12:56;18.60;99.90
61896;DHT22;47835;52.778;5.956;2022-10-23T06:15:21;18.60;99.90
61896;DHT22;47835;52.778;5.956;2022-10-23T06:17:47;18.50;99.90
61896;DHT22;47835;52.778;5.956;2022-10-23T06:20:12;18.30;99.90
61896;DHT22;47835;52.778;5.956;2022-10-23T06:22:38;18.30;99.90
61896;DHT22;47835;52.778;5.956;2022-10-23T06:25:03;18.20;99.90
61896;DHT22;47835;52.778;5.956;2022-10-23T06:27:29;18.20;99.90
61896;DHT22;47835;52.778;5.956;2022-10-23T06:29:54;18.20;99.90
61896;DHT22;47835;52.778;5.956;2022-10-23T06:32:20;18.20;99.90
61896;DHT22;47835;52.778;5.956;2022-10-23T06:34:45;18.10;99.90
61896;DHT22;47835;52.778;5.956;2022-10-23T06:37:11;18.00;99.90
61896;DHT22;47835;52.778;5.956;2022-10-23T06:39:36;18.00;99.90
61896;DHT22;47835;52.778;5.956;2022-10-23T06:42:04;17.90;99.90
61896;DHT22;47835;52.778;5.956;2022-10-23T06:44:30;17.90;99.90
61896;DHT22;47835;52.778;5.956;2022-10-23T06:46:56;17.90;99.90
61896;DHT22;47835;52.778;5.956;2022-10-23T06:49:21;17.90;99.90
61896;DHT22;47835;52.778;5.956;2022-10-23T06:51:47;17.80;99.90
61896;DHT22;47835;52.778;5.956;2022-10-23T06:54:12;17.80;99.90
61896;DHT22;47835;52.778;5.956;2022-10-23T06:56:38;17.90;99.90
61896;DHT22;47835;52.778;5.956;2022-10-23T06:59:03;17.90;99.90
61896;DHT22;47835;52.778;5.956;2022-10-23T07:01:32;17.90;99.90
61896;DHT22;47835;52.778;5.956;2022-10-23T07:03:57;17.90;99.90
61896;DHT22;47835;52.778;5.956;2022-10-23T07:06:23;17.90;99.90
61896;DHT22;47835;52.778;5.956;2022-10-23T07:08:48;17.90;99.90
61896;DHT22;47835;52.778;5.956;2022-10-23T07:11:13;17.90;99.90
61896;DHT22;47835;52.778;5.956;2022-10-23T07:13:39;17.80;99.90
61896;DHT22;47835;52.778;5.956;2022-10-23T07:16:09;17.80;99.90
61896;DHT22;47835;52.778;5.956;2022-10-23T07:18:34;17.80;99.90
61896;DHT22;47835;52.778;5.956;2022-10-23T07:21:00;17.70;99.90
61896;DHT22;47835;52.778;5.956;2022-10-23T07:23:25;17.70;99.90
61896;DHT22;47835;52.778;5.956;2022-10-23T07:25:51;17.70;99.90
61896;DHT22;47835;52.778;5.956;2022-10-23T07:28:16;17.70;99.90
61896;DHT22;47835;52.778;5.956;2022-10-23T07:30:42;17.70;99.90
61896;DHT22;47835;52.778;5.956;2022-10-23T07:33:07;17.70;99.90
61896;DHT22;47835;52.778;5.956;2022-10-23T07:35:33;17.70;99.90
61896;DHT22;47835;52.778;5.956;2022-10-23T07:37:58;17.70;99.90
61896;DHT22;47835;52.778;5.956;2022-10-23T07:40:24;17.80;99.90
61896;DHT22;47835;52.778;5.956;2022-10-23T07:42:49;17.80;99.90
61896;DHT22;47835;52.778;5.956;2022-10-23T07:45:15;17.70;99.90
61896;DHT22;47835;52.778;5.956;2022-10-23T07:47:40;17.80;99.90
61896;DHT22;47835;52.778;5.956;2022-10-23T07:50:06;17.80;99.90
61896;DHT22;47835;52.778;5.956;2022-10-23T07:52:33;17.70;99.90
61896;DHT22;47835;52.778;5.956;2022-10-23T07:54:59;17.70;99.90
61896;DHT22;47835;52.778;5.956;2022-10-23T07:57:24;17.80;99.90
61896;DHT22;47835;52.778;5.956;2022-10-23T07:59:50;17.70;99.90
61896;DHT22;47835;52.778;5.956;2022-10-23T08:02:15;17.80;99.90
61896;DHT22;47835;52.778;5.956;2022-10-23T08:04:41;17.80;99.90
61896;DHT22;47835;52.778;5.956;2022-10-23T08:07:06;17.80;99.90
61896;DHT22;47835;52.778;5.956;2022-10-23T08:09:32;17.70;99.90
61896;DHT22;47835;52.778;5.956;2022-10-23T08:11:59;17.70;99.90
61896;DHT22;47835;52.778;5.956;2022-10-23T08:14:24;17.80;99.90
61896;DHT22;47835;52.778;5.956;2022-10-23T08:16:50;17.80;99.90
61896;DHT22;47835;52.778;5.956;2022-10-23T08:19:15;17.80;99.90
61896;DHT22;47835;52.778;5.956;2022-10-23T08:21:41;17.80;99.90
61896;DHT22;47835;52.778;5.956;2022-10-23T08:24:06;17.80;99.90
61896;DHT22;47835;52.778;5.956;2022-10-23T08:26:32;17.70;99.90
61896;DHT22;47835;52.778;5.956;2022-10-23T08:28:57;17.80;99.90
61896;DHT22;47835;52.778;5.956;2022-10-23T08:31:23;17.80;99.90
61896;DHT22;47835;52.778;5.956;2022-10-23T08:33:49;17.80;99.90
61896;DHT22;47835;52.778;5.956;2022-10-23T08:36:24;17.80;99.90
61896;DHT22;47835;52.778;5.956;2022-10-23T08:38:50;17.80;99.90
61896;DHT22;47835;52.778;5.956;2022-10-23T08:41:26;17.80;99.90
61896;DHT22;47835;52.778;5.956;2022-10-23T08:43:53;17.90;99.90
61896;DHT22;47835;52.778;5.956;2022-10-23T08:46:22;17.90;99.90
61896;DHT22;47835;52.778;5.956;2022-10-23T08:48:54;17.90;99.90
61896;DHT22;47835;52.778;5.956;2022-10-23T08:51:21;17.80;99.90
61896;DHT22;47835;52.778;5.956;2022-10-23T08:54:00;17.80;99.90
61896;DHT22;47835;52.778;5.956;2022-10-23T08:56:31;17.80;99.90
61896;DHT22;47835;52.778;5.956;2022-10-23T08:58:59;17.80;99.90
61896;DHT22;47835;52.778;5.956;2022-10-23T09:01:32;17.70;99.90
61896;DHT22;47835;52.778;5.956;2022-10-23T09:04:00;17.70;99.90
61896;DHT22;47835;52.778;5.956;2022-10-23T09:06:32;17.70;99.90
61896;DHT22;47835;52.778;5.956;2022-10-23T09:09:03;17.70;99.90
61896;DHT22;47835;52.778;5.956;2022-10-23T09:16:49;17.70;99.90
61896;DHT22;47835;52.778;5.956;2022-10-23T09:19:19;17.80;99.90
61896;DHT22;47835;52.778;5.956;2022-10-23T09:21:47;17.80;99.90
61896;DHT22;47835;52.778;5.956;2022-10-23T09:24:15;17.90;99.90
61896;DHT22;47835;52.778;5.956;2022-10-23T09:26:51;17.90;99.90
61896;DHT22;47835;52.778;5.956;2022-10-23T09:29:30;17.90;99.90
61896;DHT22;47835;52.778;5.956;2022-10-23T09:32:01;18.00;99.90
61896;DHT22;47835;52.778;5.956;2022-10-23T09:34:27;18.00;99.90
61896;DHT22;47835;52.778;5.956;2022-10-23T09:36:58;18.00;99.90
61896;DHT22;47835;52.778;5.956;2022-10-23T09:39:30;17.90;99.90
61896;DHT22;47835;52.778;5.956;2022-10-23T09:41:56;18.00;99.90
61896;DHT22;47835;52.778;5.956;2022-10-23T09:44:26;18.00;99.90
61896;DHT22;47835;52.778;5.956;2022-10-23T09:49:31;17.90;99.90
61896;DHT22;47835;52.778;5.956;2022-10-23T09:52:00;18.00;99.90
61896;DHT22;47835;52.778;5.956;2022-10-23T09:54:27;17.90;99.90
61896;DHT22;47835;52.778;5.956;2022-10-23T09:56:53;17.90;99.90
61896;DHT22;47835;52.778;5.956;2022-10-23T09:59:26;17.90;99.90
61896;DHT22;47835;52.778;5.956;2022-10-23T10:04:18;17.90;99.90
61896;DHT22;47835;52.778;5.956;2022-10-23T10:06:57;17.90;99.90
61896;DHT22;47835;52.778;5.956;2022-10-23T10:09:25;17.90;99.90
61896;DHT22;47835;52.778;5.956;2022-10-23T10:11:55;18.00;99.90
61896;DHT22;47835;52.778;5.956;2022-10-23T10:19:40;17.90;99.90
61896;DHT22;47835;52.778;5.956;2022-10-23T10:24:44;17.90;99.90
61896;DHT22;47835;52.778;5.956;2022-10-23T10:30:27;17.90;99.90
61896;DHT22;47835;52.778;5.956;2022-10-23T10:32:45;17.90;99.90
61896;DHT22;47835;52.778;5.956;2022-10-23T10:37:53;17.90;99.90
61896;DHT22;47835;52.778;5.956;2022-10-23T10:42:52;17.90;99.90
61896;DHT22;47835;52.778;5.956;2022-10-23T10:45:32;17.90;99.90
61896;DHT22;47835;52.778;5.956;2022-10-23T10:50:42;17.90;99.90
61896;DHT22;47835;52.778;5.956;2022-10-23T10:53:13;17.90;99.90
61896;DHT22;47835;52.778;5.956;2022-10-23T10:55:41;17.90;99.90
61896;DHT22;47835;52.778;5.956;2022-10-23T11:00:33;17.90;99.90
61896;DHT22;47835;52.778;5.956;2022-10-23T11:03:11;18.00;99.90
61896;DHT22;47835;52.778;5.956;2022-10-23T11:05:46;18.00;99.90
61896;DHT22;47835;52.778;5.956;2022-10-23T11:08:20;18.00;99.90
61896;DHT22;47835;52.778;5.956;2022-10-23T11:10:59;18.00;99.90
61896;DHT22;47835;52.778;5.956;2022-10-23T11:15:58;18.00;99.90
61896;DHT22;47835;52.778;5.956;2022-10-23T11:18:26;18.00;99.90
61896;DHT22;47835;52.778;5.956;2022-10-23T11:23:47;18.00;99.90
61896;DHT22;47835;52.778;5.956;2022-10-23T11:31:37;18.00;99.90
61896;DHT22;47835;52.778;5.956;2022-10-23T11:41:48;18.00;99.90
61896;DHT22;47835;52.778;5.956;2022-10-23T11:44:27;18.00;99.90
61896;DHT22;47835;52.778;5.956;2022-10-23T11:47:03;18.10;99.90
61896;DHT22;47835;52.778;5.956;2022-10-23T11:49:29;18.00;99.90
61896;DHT22;47835;52.778;5.956;2022-10-23T11:51:58;18.00;99.90
61896;DHT22;47835;52.778;5.956;2022-10-23T11:54:24;18.00;99.90
61896;DHT22;47835;52.778;5.956;2022-10-23T11:59:51;18.10;99.90
61896;DHT22;47835;52.778;5.956;2022-10-23T12:04:59;18.10;99.90
61896;DHT22;47835;52.778;5.956;2022-10-23T12:07:27;18.20;99.90
61896;DHT22;47835;52.778;5.956;2022-10-23T12:10:01;18.20;99.90
61896;DHT22;47835;52.778;5.956;2022-10-23T12:14:53;18.20;99.90
61896;DHT22;47835;52.778;5.956;2022-10-23T12:19:49;18.20;99.90
61896;DHT22;47835;52.778;5.956;2022-10-23T12:22:14;18.30;99.90
61896;DHT22;47835;52.778;5.956;2022-10-23T12:27:29;18.30;99.90
61896;DHT22;47835;52.778;5.956;2022-10-23T12:29:59;18.30;99.90
61896;DHT22;47835;52.778;5.956;2022-10-23T12:40:09;18.30;99.90
61896;DHT22;47835;52.778;5.956;2022-10-23T12:42:35;18.30;99.90
61896;DHT22;47835;52.778;5.956;2022-10-23T12:47:32;18.30;99.90
61896;DHT22;47835;52.778;5.956;2022-10-23T12:49:58;18.30;99.90
61896;DHT22;47835;52.778;5.956;2022-10-23T12:52:23;18.30;99.90
61896;DHT22;47835;52.778;5.956;2022-10-23T12:54:49;18.30;99.90
61896;DHT22;47835;52.778;5.956;2022-10-23T12:57:22;18.30;99.90
61896;DHT22;47835;52.778;5.956;2022-10-23T12:59:48;18.30;99.90
61896;DHT22;47835;52.778;5.956;2022-10-23T13:02:21;18.30;99.90
61896;DHT22;47835;52.778;5.956;2022-10-23T13:04:47;18.30;99.90
61896;DHT22;47835;52.778;5.956;2022-10-23T13:07:13;18.30;99.90
61896;DHT22;47835;52.778;5.956;2022-10-23T13:09:40;18.20;99.90
61896;DHT22;47835;52.778;5.956;2022-10-23T13:12:06;18.20;99.90
61896;DHT22;47835;52.778;5.956;2022-10-23T13:14:34;18.30;99.90
61896;DHT22;47835;52.778;5.956;2022-10-23T13:17:01;18.30;99.90
61896;DHT22;47835;52.778;5.956;2022-10-23T13:19:27;18.20;99.90
61896;DHT22;47835;52.778;5.956;2022-10-23T13:21:52;18.20;99.90
61896;DHT22;47835;52.778;5.956;2022-10-23T13:24:18;18.20;99.90
61896;DHT22;47835;52.778;5.956;2022-10-23T13:26:45;18.20;99.90
61896;DHT22;47835;52.778;5.956;2022-10-23T13:29:30;18.20;99.90
61896;DHT22;47835;52.778;5.956;2022-10-23T13:31:56;18.20;99.90
61896;DHT22;47835;52.778;5.956;2022-10-23T13:34:25;18.20;99.90
61896;DHT22;47835;52.778;5.956;2022-10-23T13:36:53;18.20;99.90
61896;DHT22;47835;52.778;5.956;2022-10-23T13:39:22;18.20;99.90
61896;DHT22;47835;52.778;5.956;2022-10-23T13:41:48;18.20;99.90
61896;DHT22;47835;52.778;5.956;2022-10-23T13:44:14;18.20;99.90
61896;DHT22;47835;52.778;5.956;2022-10-23T13:46:40;18.20;99.90
61896;DHT22;47835;52.778;5.956;2022-10-23T13:49:06;18.20;99.90
61896;DHT22;47835;52.778;5.956;2022-10-23T13:51:36;18.20;99.90
61896;DHT22;47835;52.778;5.956;2022-10-23T13:54:05;18.20;99.90
61896;DHT22;47835;52.778;5.956;2022-10-23T13:56:30;18.20;99.90
61896;DHT22;47835;52.778;5.956;2022-10-23T13:58:57;18.20;99.90
61896;DHT22;47835;52.778;5.956;2022-10-23T14:01:26;18.20;99.90
61896;DHT22;47835;52.778;5.956;2022-10-23T14:03:53;18.20;99.90
61896;DHT22;47835;52.778;5.956;2022-10-23T14:06:18;18.20;99.90
61896;DHT22;47835;52.778;5.956;2022-10-23T14:08:44;18.20;99.90
61896;DHT22;47835;52.778;5.956;2022-10-23T14:11:10;18.30;99.90
61896;DHT22;47835;52.778;5.956;2022-10-23T14:13:36;18.30;99.90
61896;DHT22;47835;52.778;5.956;2022-10-23T14:16:01;18.20;99.90
61896;DHT22;47835;52.778;5.956;2022-10-23T14:18:27;18.20;99.90
61896;DHT22;47835;52.778;5.956;2022-10-23T14:20:52;18.20;99.90
61896;DHT22;47835;52.778;5.956;2022-10-23T14:23:18;18.20;99.90
61896;DHT22;47835;52.778;5.956;2022-10-23T14:25:43;18.20;99.90
61896;DHT22;47835;52.778;5.956;2022-10-23T14:28:09;18.20;99.90
61896;DHT22;47835;52.778;5.956;2022-10-23T14:30:35;18.20;99.90
61896;DHT22;47835;52.778;5.956;2022-10-23T14:33:00;18.20;99.90
61896;DHT22;47835;52.778;5.956;2022-10-23T14:35:26;18.20;99.90
61896;DHT22;47835;52.778;5.956;2022-10-23T14:37:51;18.30;99.90
61896;DHT22;47835;52.778;5.956;2022-10-23T14:40:17;18.20;99.90
61896;DHT22;47835;52.778;5.956;2022-10-23T14:42:42;18.20;99.90
61896;DHT22;47835;52.778;5.956;2022-10-23T14:45:08;18.20;99.90
61896;DHT22;47835;52.778;5.956;2022-10-23T14:47:33;18.30;99.90
61896;DHT22;47835;52.778;5.956;2022-10-23T14:49:59;18.20;99.90
61896;DHT22;47835;52.778;5.956;2022-10-23T14:52:24;18.20;99.90
61896;DHT22;47835;52.778;5.956;2022-10-23T14:54:50;18.20;99.90
61896;DHT22;47835;52.778;5.956;2022-10-23T14:57:17;18.30;99.90
61896;DHT22;47835;52.778;5.956;2022-10-23T14:59:45;18.30;99.90
61896;DHT22;47835;52.778;5.956;2022-10-23T15:02:11;18.30;99.90
61896;DHT22;47835;52.778;5.956;2022-10-23T15:04:36;18.20;99.90
61896;DHT22;47835;52.778;5.956;2022-10-23T15:07:02;18.30;99.90
61896;DHT22;47835;52.778;5.956;2022-10-23T15:09:27;18.20;99.90
61896;DHT22;47835;52.778;5.956;2022-10-23T15:11:53;18.30;99.90
61896;DHT22;47835;52.778;5.956;2022-10-23T15:14:18;18.20;99.90
61896;DHT22;47835;52.778;5.956;2022-10-23T15:16:44;18.30;99.90
61896;DHT22;47835;52.778;5.956;2022-10-23T15:19:10;18.30;99.90
61896;DHT22;47835;52.778;5.956;2022-10-23T15:21:36;18.30;99.90
61896;DHT22;47835;52.778;5.956;2022-10-23T15:24:02;18.30;99.90
61896;DHT22;47835;52.778;5.956;2022-10-23T15:26:28;18.30;99.90
61896;DHT22;47835;52.778;5.956;2022-10-23T15:28:54;18.30;99.90
61896;DHT22;47835;52.778;5.956;2022-10-23T15:33:55;18.30;99.90
61896;DHT22;47835;52.778;5.956;2022-10-23T15:36:20;18.30;99.90
61896;DHT22;47835;52.778;5.956;2022-10-23T15:38:46;18.30;99.90
61896;DHT22;47835;52.778;5.956;2022-10-23T15:41:13;18.30;99.90
61896;DHT22;47835;52.778;5.956;2022-10-23T15:43:38;18.30;99.90
61896;DHT22;47835;52.778;5.956;2022-10-23T15:46:04;18.30;99.90
61896;DHT22;47835;52.778;5.956;2022-10-23T15:48:29;18.30;99.90
61896;DHT22;47835;52.778;5.956;2022-10-23T15:50:55;18.30;99.90
61896;DHT22;47835;52.778;5.956;2022-10-23T15:53:20;18.30;99.90
61896;DHT22;47835;52.778;5.956;2022-10-23T15:55:46;18.30;99.90
61896;DHT22;47835;52.778;5.956;2022-10-23T15:58:11;18.30;99.90
61896;DHT22;47835;52.778;5.956;2022-10-23T16:00:37;18.30;99.90
61896;DHT22;47835;52.778;5.956;2022-10-23T16:03:03;18.30;99.90
61896;DHT22;47835;52.778;5.956;2022-10-23T16:05:28;18.30;99.90
61896;DHT22;47835;52.778;5.956;2022-10-23T16:07:54;18.30;99.90
61896;DHT22;47835;52.778;5.956;2022-10-23T16:10:19;18.30;99.90
61896;DHT22;47835;52.778;5.956;2022-10-23T16:12:45;18.30;99.90
61896;DHT22;47835;52.778;5.956;2022-10-23T16:15:10;18.30;99.90
61896;DHT22;47835;52.778;5.956;2022-10-23T16:17:36;18.30;99.90
61896;DHT22;47835;52.778;5.956;2022-10-23T16:20:01;18.30;99.90
61896;DHT22;47835;52.778;5.956;2022-10-23T16:22:27;18.30;99.90
61896;DHT22;47835;52.778;5.956;2022-10-23T16:24:52;18.30;99.90
61896;DHT22;47835;52.778;5.956;2022-10-23T16:27:18;18.30;99.90
61896;DHT22;47835;52.778;5.956;2022-10-23T16:29:43;18.30;99.90
61896;DHT22;47835;52.778;5.956;2022-10-23T16:32:10;18.30;99.90
61896;DHT22;47835;52.778;5.956;2022-10-23T16:34:35;18.20;99.90
61896;DHT22;47835;52.778;5.956;2022-10-23T16:37:01;18.20;99.90
61896;DHT22;47835;52.778;5.956;2022-10-23T16:39:26;18.20;99.90
61896;DHT22;47835;52.778;5.956;2022-10-23T16:41:52;18.20;99.90
61896;DHT22;47835;52.778;5.956;2022-10-23T16:44:18;18.20;99.90
61896;DHT22;47835;52.778;5.956;2022-10-23T16:46:43;18.20;99.90
61896;DHT22;47835;52.778;5.956;2022-10-23T16:49:09;18.20;99.90
61896;DHT22;47835;52.778;5.956;2022-10-23T16:51:34;18.20;99.90
61896;DHT22;47835;52.778;5.956;2022-10-23T16:54:00;18.30;99.90
61896;DHT22;47835;52.778;5.956;2022-10-23T16:56:26;18.20;99.90
61896;DHT22;47835;52.778;5.956;2022-10-23T16:58:53;18.20;99.90
61896;DHT22;47835;52.778;5.956;2022-10-23T17:01:20;18.20;99.90
61896;DHT22;47835;52.778;5.956;2022-10-23T17:03:46;18.20;99.90
61896;DHT22;47835;52.778;5.956;2022-10-23T17:06:13;18.20;99.90
61896;DHT22;47835;52.778;5.956;2022-10-23T17:08:39;18.20;99.90
61896;DHT22;47835;52.778;5.956;2022-10-23T17:11:15;18.30;99.90